Time;durP1;ratioP1;P1;durP2;ratioP2;P2;SDS_P1;SDS_P2;PMS_P1;PMS_P2;Temp;Humidity;BMP_temperature;BMP_pressure;BME280_temperature;BME280_humidity;BME280_pressure;Samples;Min_cycle;Max_cycle;Signal;HPM_P1;HPM_P2
2024/03/16 00:01:25;;;;;;;;;4.00;4.00;;;;;;;;5013695;28;45608;-78
2024/03/16 00:03:50;;;;;;;;;4.33;3.00;;;;;;;;5013367;28;45301;-78
2024/03/16 00:06:16;;;;;;;;;1.67;1.67;;;;;;;;5011881;28;46971;-78
2024/03/16 00:08:41;;;;;;;;;1.33;1.33;;;;;;;;5031496;28;46146;-78
2024/03/16 00:11:06;;;;;;;;;3.33;3.33;;;;;;;;5031483;28;45400;-79
2024/03/16 00:13:31;;;;;;;;;1.67;1.33;;;;;;;;5026242;28;45222;-79
2024/03/16 00:15:56;;;;;;;;;2.33;2.33;;;;;;;;5025993;28;45197;-78
2024/03/16 00:18:21;;;;;;;;;1.50;1.50;;;;;;;;5026877;28;45280;-78
2024/03/16 00:20:47;;;;;;;;;1.33;1.33;;;;;;;;5029475;28;45216;-80
2024/03/16 00:23:12;;;;;;;;;1.67;0.67;;;;;;;;5024981;28;45229;-79
2024/03/16 00:25:37;;;;;;;;;0.67;0.67;;;;;;;;5007222;28;47150;-78
2024/03/16 00:28:02;;;;;;;;;0.33;0.33;;;;;;;;5023573;28;46372;-78
2024/03/16 00:30:27;;;;;;;;;2.67;1.67;;;;;;;;5005668;28;46099;-78
2024/03/16 00:32:54;;;;;;;;;2.67;2.00;;;;;;;;5004176;28;45342;-76
2024/03/16 00:35:19;;;;;;;;;1.33;0.33;;;;;;;;5022483;28;45453;-78
2024/03/16 00:37:45;;;;;;;;;1.00;1.00;;;;;;;;5003910;28;46357;-78
2024/03/16 00:40:10;;;;;;;;;2.00;1.00;;;;;;;;5021741;28;45265;-78
2024/03/16 00:42:35;;;;;;;;;0.00;0.00;;;;;;;;5022323;28;45164;-78
2024/03/16 00:45:01;;;;;;;;;1.00;1.00;;;;;;;;5021576;28;45396;-79
2024/03/16 00:47:26;;;;;;;;;0.00;0.00;;;;;;;;5021696;28;45618;-79
2024/03/16 00:49:52;;;;;;;;;0.00;0.00;;;;;;;;5003569;28;46035;-79
2024/03/16 00:52:17;;;;;;;;;0.00;0.00;;;;;;;;5003869;28;45373;-79
2024/03/16 00:54:42;;;;;;;;;0.00;0.00;;;;;;;;5021664;28;45578;-79
2024/03/16 00:57:07;;;;;;;;;0.00;0.00;;;;;;;;4997634;28;47222;-79
2024/03/16 00:59:33;;;;;;;;;0.00;0.00;;;;;;;;4983893;28;45377;-79
2024/03/16 01:01:58;;;;;;;;;0.00;0.00;;;;;;;;5001688;28;45594;-79
2024/03/16 01:04:23;;;;;;;;;0.00;0.00;;;;;;;;4983726;28;45871;-79
2024/03/16 01:06:49;;;;;;;;;0.00;0.00;;;;;;;;4983395;28;48366;-79
2024/03/16 01:09:16;;;;;;;;;0.00;0.00;;;;;;;;5001302;28;45233;-79
2024/03/16 01:11:41;;;;;;;;;0.00;0.00;;;;;;;;5001138;28;45170;-80
2024/03/16 01:14:08;;;;;;;;;0.00;0.00;;;;;;;;5001254;28;45572;-79
2024/03/16 01:16:33;;;;;;;;;1.33;0.00;;;;;;;;5000513;28;45450;-79
2024/03/16 01:18:58;;;;;;;;;1.00;0.00;;;;;;;;4982482;28;45244;-79
2024/03/16 01:21:24;;;;;;;;;0.00;0.00;;;;;;;;5001465;28;45429;-79
2024/03/16 01:23:49;;;;;;;;;1.00;0.33;;;;;;;;5001173;28;45328;-79
2024/03/16 01:26:14;;;;;;;;;1.00;0.00;;;;;;;;5001098;28;45498;-79
2024/03/16 01:28:39;;;;;;;;;0.67;0.67;;;;;;;;5001194;28;45446;-80
2024/03/16 01:31:04;;;;;;;;;1.00;0.00;;;;;;;;5001086;28;45249;-78
2024/03/16 01:33:29;;;;;;;;;0.00;0.00;;;;;;;;4982943;28;47033;-79
2024/03/16 01:35:55;;;;;;;;;0.33;0.33;;;;;;;;5000972;28;45492;-79
2024/03/16 01:38:20;;;;;;;;;0.00;0.00;;;;;;;;5001118;28;45310;-79
2024/03/16 01:40:48;;;;;;;;;0.00;0.00;;;;;;;;4983213;28;45337;-79
2024/03/16 01:43:14;;;;;;;;;0.00;0.00;;;;;;;;4983199;28;46244;-80
2024/03/16 01:45:40;;;;;;;;;1.00;0.00;;;;;;;;5000672;28;46174;-79
2024/03/16 01:48:05;;;;;;;;;0.33;0.00;;;;;;;;4982650;28;45321;-79
2024/03/16 01:50:30;;;;;;;;;0.00;0.00;;;;;;;;5000675;28;45273;-79
2024/03/16 01:52:56;;;;;;;;;0.00;0.00;;;;;;;;4999785;28;45367;-79
2024/03/16 01:55:21;;;;;;;;;1.00;0.00;;;;;;;;5000740;28;45258;-79
2024/03/16 01:57:46;;;;;;;;;0.00;0.00;;;;;;;;5011740;28;45299;-79
2024/03/16 02:00:11;;;;;;;;;0.00;0.00;;;;;;;;5020671;28;45250;-79
2024/03/16 02:02:38;;;;;;;;;0.00;0.00;;;;;;;;5002431;28;46492;-79
2024/03/16 02:05:04;;;;;;;;;0.00;0.00;;;;;;;;5002221;28;47296;-78
2024/03/16 02:07:32;;;;;;;;;0.00;0.00;;;;;;;;5020262;28;45314;-79
2024/03/16 02:09:59;;;;;;;;;0.00;0.00;;;;;;;;5020355;28;45386;-79
2024/03/16 02:12:24;;;;;;;;;0.00;0.00;;;;;;;;5020295;28;45257;-80
2024/03/16 02:14:49;;;;;;;;;0.00;0.00;;;;;;;;5002374;28;47226;-79
2024/03/16 02:17:14;;;;;;;;;0.00;0.00;;;;;;;;5020020;28;45372;-78
2024/03/16 02:19:40;;;;;;;;;1.00;0.00;;;;;;;;5020263;28;45580;-79
2024/03/16 02:22:05;;;;;;;;;0.00;0.00;;;;;;;;5002369;28;47444;-79
2024/03/16 02:24:32;;;;;;;;;0.00;0.00;;;;;;;;5002033;28;48042;-80
2024/03/16 02:26:57;;;;;;;;;0.00;0.00;;;;;;;;5020203;28;45344;-79
2024/03/16 02:29:23;;;;;;;;;0.00;0.00;;;;;;;;5020238;28;45231;-80
2024/03/16 02:31:48;;;;;;;;;0.00;0.00;;;;;;;;5019716;28;45341;-79
2024/03/16 02:34:13;;;;;;;;;0.00;0.00;;;;;;;;5001883;28;48413;-79
2024/03/16 02:36:38;;;;;;;;;0.00;0.00;;;;;;;;5001682;28;45859;-79
2024/03/16 02:39:03;;;;;;;;;0.00;0.00;;;;;;;;5019962;28;45314;-79
2024/03/16 02:41:29;;;;;;;;;0.00;0.00;;;;;;;;5002000;28;46303;-79
2024/03/16 02:43:54;;;;;;;;;1.67;0.00;;;;;;;;5019784;28;45381;-79
2024/03/16 02:46:19;;;;;;;;;0.00;0.00;;;;;;;;5019772;28;45282;-79
2024/03/16 02:48:45;;;;;;;;;0.00;0.00;;;;;;;;5019599;28;45594;-79
2024/03/16 02:51:10;;;;;;;;;0.00;0.00;;;;;;;;5019620;28;45368;-79
2024/03/16 02:53:35;;;;;;;;;1.00;0.00;;;;;;;;5019539;28;45343;-79
2024/03/16 02:56:00;;;;;;;;;0.00;0.00;;;;;;;;5001902;28;46154;-78
2024/03/16 02:58:26;;;;;;;;;0.00;0.00;;;;;;;;5002868;28;45226;-79
2024/03/16 03:00:51;;;;;;;;;0.00;0.00;;;;;;;;4982065;28;46429;-79
2024/03/16 03:03:16;;;;;;;;;0.00;0.00;;;;;;;;4999562;28;46481;-79
2024/03/16 03:05:42;;;;;;;;;0.00;0.00;;;;;;;;4999781;28;45803;-79
2024/03/16 03:08:07;;;;;;;;;0.00;0.00;;;;;;;;4982055;28;45398;-79
2024/03/16 03:10:32;;;;;;;;;0.00;0.00;;;;;;;;4999417;28;45399;-78
2024/03/16 03:12:57;;;;;;;;;0.00;0.00;;;;;;;;4999614;28;46102;-79
2024/03/16 03:15:22;;;;;;;;;1.00;0.00;;;;;;;;4999732;28;45428;-79
2024/03/16 03:17:48;;;;;;;;;0.00;0.00;;;;;;;;4998238;28;45338;-79
2024/03/16 03:20:13;;;;;;;;;0.00;0.00;;;;;;;;4999371;28;45348;-79
2024/03/16 03:22:39;;;;;;;;;0.00;0.00;;;;;;;;4999431;28;45373;-79
2024/03/16 03:25:05;;;;;;;;;0.00;0.00;;;;;;;;4999473;28;45414;-79
2024/03/16 03:27:30;;;;;;;;;0.00;0.00;;;;;;;;4999305;28;45487;-79
2024/03/16 03:29:55;;;;;;;;;0.00;0.00;;;;;;;;4999329;28;45336;-79
2024/03/16 03:32:20;;;;;;;;;0.00;0.00;;;;;;;;4998984;28;45374;-79
2024/03/16 03:34:46;;;;;;;;;0.67;0.00;;;;;;;;4999301;28;45293;-79
2024/03/16 03:37:12;;;;;;;;;0.00;0.00;;;;;;;;4981729;28;45269;-79
2024/03/16 03:39:37;;;;;;;;;0.00;0.00;;;;;;;;4981548;28;45609;-79
2024/03/16 03:42:02;;;;;;;;;0.00;0.00;;;;;;;;4999336;28;45747;-79
2024/03/16 03:44:36;;;;;;;;;0.00;0.00;;;;;;;;4999340;28;45348;-79
2024/03/16 03:47:03;;;;;;;;;0.00;0.00;;;;;;;;4999213;28;45320;-79
2024/03/16 03:49:36;;;;;;;;;1.00;0.00;;;;;;;;4999828;28;45286;-80
2024/03/16 03:52:02;;;;;;;;;0.00;0.00;;;;;;;;5002599;28;46237;-79
2024/03/16 03:54:28;;;;;;;;;0.00;0.00;;;;;;;;5002566;28;45314;-79
2024/03/16 03:56:53;;;;;;;;;0.00;0.00;;;;;;;;4988601;28;45311;-79
2024/03/16 03:59:19;;;;;;;;;0.00;0.00;;;;;;;;5004243;28;46241;-79
2024/03/16 04:01:44;;;;;;;;;0.00;0.00;;;;;;;;5022054;28;45960;-79
2024/03/16 04:04:09;;;;;;;;;0.67;0.00;;;;;;;;5004331;28;45282;-79
2024/03/16 04:06:34;;;;;;;;;0.00;0.00;;;;;;;;5004473;28;45589;-79
2024/03/16 04:08:59;;;;;;;;;0.00;0.00;;;;;;;;5004325;28;46967;-79
2024/03/16 04:11:25;;;;;;;;;0.00;0.00;;;;;;;;5022061;28;45327;-79
2024/03/16 04:13:50;;;;;;;;;0.00;0.00;;;;;;;;5022263;28;45708;-79
2024/03/16 04:16:15;;;;;;;;;0.00;0.00;;;;;;;;5022403;28;45609;-79
2024/03/16 04:18:41;;;;;;;;;0.00;0.00;;;;;;;;5021663;28;45648;-79
2024/03/16 04:21:07;;;;;;;;;0.00;0.00;;;;;;;;5022166;28;45607;-80
2024/03/16 04:23:32;;;;;;;;;0.00;0.00;;;;;;;;5021939;28;45339;-80
2024/03/16 04:25:57;;;;;;;;;0.00;0.00;;;;;;;;5004181;28;45402;-79
2024/03/16 04:28:22;;;;;;;;;0.00;0.00;;;;;;;;5004117;28;47038;-80
2024/03/16 04:30:47;;;;;;;;;0.00;0.00;;;;;;;;5003640;28;47142;-80
2024/03/16 04:33:15;;;;;;;;;0.00;0.00;;;;;;;;5003660;28;46111;-79
2024/03/16 04:35:40;;;;;;;;;0.00;0.00;;;;;;;;5021781;28;45281;-79
2024/03/16 04:38:07;;;;;;;;;0.00;0.00;;;;;;;;5003743;28;46396;-80
2024/03/16 04:40:33;;;;;;;;;0.00;0.00;;;;;;;;5021719;28;45424;-79
2024/03/16 04:42:58;;;;;;;;;0.00;0.00;;;;;;;;5021655;28;45189;-79
2024/03/16 04:45:24;;;;;;;;;0.00;0.00;;;;;;;;5004033;28;45379;-79
2024/03/16 04:47:49;;;;;;;;;0.00;0.00;;;;;;;;5003411;28;46102;-79
2024/03/16 04:50:15;;;;;;;;;0.00;0.00;;;;;;;;5021091;28;45362;-79
2024/03/16 04:52:40;;;;;;;;;0.00;0.00;;;;;;;;5021606;28;45328;-79
2024/03/16 04:55:05;;;;;;;;;0.00;0.00;;;;;;;;5003780;28;45266;-79
2024/03/16 04:57:30;;;;;;;;;0.00;0.00;;;;;;;;4994485;28;46163;-79
2024/03/16 04:59:56;;;;;;;;;0.00;0.00;;;;;;;;4983496;28;47113;-79
2024/03/16 05:02:21;;;;;;;;;0.00;0.00;;;;;;;;4983537;28;45866;-79
2024/03/16 05:04:46;;;;;;;;;0.00;0.00;;;;;;;;4983722;28;45386;-79
2024/03/16 05:07:11;;;;;;;;;2.00;1.67;;;;;;;;4983623;28;46407;-80
2024/03/16 05:09:36;;;;;;;;;0.00;0.00;;;;;;;;4983669;28;47453;-80
2024/03/16 05:12:02;;;;;;;;;0.00;0.00;;;;;;;;5001091;28;45415;-79
2024/03/16 05:14:27;;;;;;;;;0.00;0.00;;;;;;;;4983770;28;45354;-80
2024/03/16 05:16:52;;;;;;;;;0.00;0.00;;;;;;;;4983393;28;46064;-79
2024/03/16 05:19:18;;;;;;;;;1.00;0.00;;;;;;;;4983204;28;47685;-79
2024/03/16 05:21:43;;;;;;;;;0.00;0.00;;;;;;;;5001325;28;45281;-79
2024/03/16 05:24:08;;;;;;;;;0.00;0.00;;;;;;;;5001329;28;45328;-79
2024/03/16 05:26:34;;;;;;;;;0.00;0.00;;;;;;;;4983421;28;47609;-80
2024/03/16 05:28:59;;;;;;;;;0.00;0.00;;;;;;;;4983250;28;47720;-80
2024/03/16 05:31:25;;;;;;;;;0.00;0.00;;;;;;;;5001016;28;45414;-79
2024/03/16 05:33:51;;;;;;;;;0.00;0.00;;;;;;;;5001001;28;45433;-79
2024/03/16 05:36:16;;;;;;;;;0.00;0.00;;;;;;;;5001005;28;45281;-79
2024/03/16 05:38:47;;;;;;;;;0.33;0.00;;;;;;;;5000887;28;45217;-80
2024/03/16 05:41:13;;;;;;;;;0.00;0.00;;;;;;;;5001060;28;45371;-79
2024/03/16 05:43:38;;;;;;;;;0.00;0.00;;;;;;;;5000875;28;45370;-79
2024/03/16 05:46:03;;;;;;;;;0.00;0.00;;;;;;;;5000824;28;45471;-78
2024/03/16 05:48:29;;;;;;;;;0.00;0.00;;;;;;;;5000569;28;46410;-78
2024/03/16 05:50:55;;;;;;;;;0.00;0.00;;;;;;;;5000604;28;45293;-79
2024/03/16 05:53:20;;;;;;;;;0.00;0.00;;;;;;;;5000918;28;45479;-78
2024/03/16 05:55:46;;;;;;;;;0.00;0.00;;;;;;;;5000220;28;45309;-78
2024/03/16 05:58:11;;;;;;;;;0.00;0.00;;;;;;;;5004257;28;46547;-78
2024/03/16 06:00:37;;;;;;;;;0.00;0.00;;;;;;;;4982492;28;45306;-78
2024/03/16 06:03:03;;;;;;;;;0.00;0.00;;;;;;;;4982629;28;45411;-78
2024/03/16 06:05:28;;;;;;;;;0.00;0.00;;;;;;;;5000163;28;45515;-78
2024/03/16 06:07:53;;;;;;;;;0.00;0.00;;;;;;;;5000529;28;45380;-77
2024/03/16 06:10:18;;;;;;;;;0.33;0.00;;;;;;;;5000357;28;45318;-78
2024/03/16 06:12:44;;;;;;;;;0.00;0.00;;;;;;;;4999697;28;45341;-78
2024/03/16 06:15:09;;;;;;;;;1.00;0.00;;;;;;;;5000474;28;45379;-78
2024/03/16 06:17:34;;;;;;;;;0.00;0.00;;;;;;;;4982523;28;47072;-78
2024/03/16 06:19:59;;;;;;;;;0.00;0.00;;;;;;;;5000212;28;45326;-78
2024/03/16 06:22:25;;;;;;;;;0.00;0.00;;;;;;;;5000599;28;45629;-79
2024/03/16 06:24:51;;;;;;;;;0.67;0.00;;;;;;;;5000115;28;45286;-79
2024/03/16 06:27:21;;;;;;;;;0.00;0.00;;;;;;;;5001644;28;45388;-79
2024/03/16 06:29:51;;;;;;;;;0.00;0.00;;;;;;;;5018265;28;45371;-79
2024/03/16 06:32:20;;;;;;;;;0.00;0.00;;;;;;;;5019608;28;45438;-79
2024/03/16 06:34:45;;;;;;;;;1.00;1.00;;;;;;;;5019452;28;45436;-79
2024/03/16 06:37:10;;;;;;;;;0.00;0.00;;;;;;;;5019727;28;45392;-79
2024/03/16 06:39:35;;;;;;;;;0.00;0.00;;;;;;;;5001988;28;45289;-79
2024/03/16 06:42:00;;;;;;;;;0.67;0.00;;;;;;;;5006526;28;45699;-79
2024/03/16 06:44:26;;;;;;;;;0.00;0.00;;;;;;;;4999858;28;45421;-79
2024/03/16 06:46:51;;;;;;;;;1.00;0.00;;;;;;;;4981817;28;47132;-79
2024/03/16 06:49:17;;;;;;;;;0.00;0.00;;;;;;;;4999756;28;45405;-79
2024/03/16 06:51:42;;;;;;;;;0.00;0.00;;;;;;;;4981923;28;45351;-78
2024/03/16 06:54:08;;;;;;;;;0.00;0.00;;;;;;;;4975739;28;46224;-78
2024/03/16 06:56:33;;;;;;;;;0.00;0.00;;;;;;;;5000168;28;45243;-79
2024/03/16 06:58:59;;;;;;;;;0.00;0.00;;;;;;;;4999468;28;45346;-78
2024/03/16 07:01:24;;;;;;;;;0.00;0.00;;;;;;;;5002441;28;45261;-77
2024/03/16 07:03:51;;;;;;;;;3.67;3.67;;;;;;;;4983425;28;45310;-79
2024/03/16 07:06:16;;;;;;;;;0.00;0.00;;;;;;;;4982868;28;48160;-77
2024/03/16 07:08:41;;;;;;;;;0.00;0.00;;;;;;;;4999745;28;45245;-79
2024/03/16 07:11:06;;;;;;;;;1.00;0.00;;;;;;;;5001233;28;45440;-78
2024/03/16 07:13:32;;;;;;;;;2.00;0.00;;;;;;;;5001132;28;45636;-78
2024/03/16 07:15:57;;;;;;;;;0.00;0.00;;;;;;;;4981542;28;47034;-79
2024/03/16 07:18:22;;;;;;;;;0.00;0.00;;;;;;;;4999843;28;45293;-79
2024/03/16 07:20:48;;;;;;;;;1.00;1.00;;;;;;;;4999354;28;45246;-80
2024/03/16 07:23:13;;;;;;;;;1.00;1.00;;;;;;;;4999935;28;45585;-79
2024/03/16 07:25:39;;;;;;;;;1.33;1.00;;;;;;;;4984373;28;48282;-79
2024/03/16 07:28:04;;;;;;;;;1.00;1.00;;;;;;;;5002176;28;45254;-78
2024/03/16 07:30:29;;;;;;;;;1.00;1.00;;;;;;;;5002615;28;45277;-76
2024/03/16 07:32:56;;;;;;;;;0.00;0.00;;;;;;;;5002019;28;45312;-78
2024/03/16 07:35:21;;;;;;;;;1.00;0.33;;;;;;;;5002388;28;45597;-76
2024/03/16 07:37:46;;;;;;;;;1.33;1.00;;;;;;;;4984609;28;45301;-76
2024/03/16 07:40:15;;;;;;;;;0.67;0.67;;;;;;;;5002620;28;45329;-76
2024/03/16 07:42:41;;;;;;;;;1.00;1.00;;;;;;;;5002558;28;45189;-76
2024/03/16 07:45:07;;;;;;;;;0.67;0.67;;;;;;;;4984707;28;47460;-75
2024/03/16 07:47:32;;;;;;;;;1.67;1.00;;;;;;;;4984165;28;45683;-76
2024/03/16 07:49:57;;;;;;;;;0.33;0.33;;;;;;;;5002294;28;45365;-77
2024/03/16 07:52:22;;;;;;;;;0.00;0.00;;;;;;;;5002236;28;45261;-75
2024/03/16 07:54:48;;;;;;;;;1.00;1.00;;;;;;;;5002241;28;45337;-75
2024/03/16 07:57:13;;;;;;;;;1.33;1.33;;;;;;;;5008891;28;45313;-75
2024/03/16 07:59:38;;;;;;;;;1.00;1.00;;;;;;;;5022280;28;45543;-75
2024/03/16 08:02:04;;;;;;;;;1.33;1.33;;;;;;;;5021971;28;45301;-75
2024/03/16 08:04:32;;;;;;;;;3.67;1.00;;;;;;;;5005798;28;45356;-76
2024/03/16 08:06:57;;;;;;;;;1.00;1.00;;;;;;;;4983747;28;45755;-75
2024/03/16 08:09:23;;;;;;;;;1.00;1.00;;;;;;;;5001920;28;45544;-75
2024/03/16 08:11:48;;;;;;;;;1.00;1.00;;;;;;;;5001903;28;45527;-75
2024/03/16 08:14:14;;;;;;;;;1.00;1.00;;;;;;;;4984258;28;48743;-76
2024/03/16 08:16:39;;;;;;;;;2.00;2.00;;;;;;;;5001636;28;45275;-75
2024/03/16 08:19:05;;;;;;;;;1.00;1.00;;;;;;;;5002024;28;45314;-76
2024/03/16 08:21:30;;;;;;;;;1.00;1.00;;;;;;;;5001951;28;45399;-76
2024/03/16 08:23:55;;;;;;;;;1.33;1.00;;;;;;;;5000902;28;46229;-75
2024/03/16 08:26:20;;;;;;;;;2.00;2.00;;;;;;;;5002136;28;45301;-75
2024/03/16 08:28:46;;;;;;;;;1.00;1.00;;;;;;;;4982526;28;45912;-75
2024/03/16 08:31:11;;;;;;;;;1.00;1.00;;;;;;;;4982587;28;47114;-75
2024/03/16 08:33:36;;;;;;;;;1.00;1.00;;;;;;;;4983308;28;46472;-76
2024/03/16 08:36:05;;;;;;;;;2.00;1.00;;;;;;;;5000686;28;45345;-76
2024/03/16 08:38:32;;;;;;;;;2.00;1.67;;;;;;;;5001797;28;45627;-75
2024/03/16 08:40:57;;;;;;;;;1.00;1.00;;;;;;;;5001636;28;45345;-76
2024/03/16 08:43:22;;;;;;;;;2.00;2.00;;;;;;;;4983924;28;47037;-76
2024/03/16 08:45:48;;;;;;;;;3.00;1.33;;;;;;;;5001781;28;45331;-75
2024/03/16 08:48:13;;;;;;;;;3.00;3.00;;;;;;;;5001677;28;45329;-76
2024/03/16 08:50:38;;;;;;;;;3.00;3.00;;;;;;;;5001250;28;45387;-77
2024/03/16 08:53:04;;;;;;;;;1.67;1.67;;;;;;;;5001604;28;45334;-77
2024/03/16 08:55:29;;;;;;;;;4.00;4.00;;;;;;;;4983983;28;45350;-75
2024/03/16 08:57:54;;;;;;;;;1.67;1.67;;;;;;;;4996104;28;45292;-76
2024/03/16 09:00:19;;;;;;;;;2.33;2.33;;;;;;;;5003398;28;47316;-77
2024/03/16 09:02:44;;;;;;;;;3.00;3.00;;;;;;;;5021162;28;45582;-77
2024/03/16 09:05:10;;;;;;;;;6.00;5.00;;;;;;;;5021247;28;45320;-76
2024/03/16 09:07:38;;;;;;;;;4.00;3.33;;;;;;;;5011030;28;45424;-76
2024/03/16 09:10:06;;;;;;;;;4.00;4.00;;;;;;;;5000981;28;45479;-77
2024/03/16 09:12:31;;;;;;;;;5.67;4.67;;;;;;;;5001175;28;45328;-76
2024/03/16 09:14:56;;;;;;;;;4.00;4.00;;;;;;;;5001370;28;45285;-77
2024/03/16 09:17:21;;;;;;;;;3.00;3.00;;;;;;;;5001379;28;45391;-77
2024/03/16 09:19:47;;;;;;;;;5.00;4.00;;;;;;;;5001142;28;45338;-76
2024/03/16 09:22:12;;;;;;;;;4.33;4.33;;;;;;;;4983522;28;46756;-76
2024/03/16 09:24:37;;;;;;;;;4.00;2.67;;;;;;;;5001133;28;45198;-76
2024/03/16 09:27:03;;;;;;;;;2.00;2.00;;;;;;;;5001298;28;45264;-77
2024/03/16 09:29:29;;;;;;;;;2.00;1.67;;;;;;;;5001052;28;45206;-76
2024/03/16 09:31:54;;;;;;;;;2.33;1.00;;;;;;;;4982947;28;47043;-76
2024/03/16 09:34:19;;;;;;;;;1.00;1.00;;;;;;;;5000757;28;45281;-75
2024/03/16 09:36:44;;;;;;;;;1.00;1.00;;;;;;;;4983367;28;45259;-76
2024/03/16 09:39:10;;;;;;;;;2.67;1.67;;;;;;;;4983158;28;45968;-76
2024/03/16 09:41:37;;;;;;;;;2.00;2.00;;;;;;;;4983179;28;47181;-76
2024/03/16 09:44:03;;;;;;;;;2.33;2.00;;;;;;;;5000730;28;45345;-75
2024/03/16 09:46:31;;;;;;;;;2.33;2.33;;;;;;;;4999241;28;45368;-76
2024/03/16 09:48:56;;;;;;;;;1.00;1.00;;;;;;;;4999779;28;45376;-76
2024/03/16 09:51:22;;;;;;;;;2.67;2.00;;;;;;;;4999891;28;45369;-76
2024/03/16 09:53:47;;;;;;;;;2.33;2.00;;;;;;;;4982260;28;45310;-76
2024/03/16 09:56:16;;;;;;;;;2.00;2.00;;;;;;;;4981988;28;45408;-76
2024/03/16 09:58:41;;;;;;;;;1.00;1.00;;;;;;;;4999597;28;45226;-75
2024/03/16 10:01:08;;;;;;;;;2.00;2.00;;;;;;;;4999994;28;46210;-76
2024/03/16 10:03:33;;;;;;;;;2.00;2.00;;;;;;;;4981368;28;45452;-77
2024/03/16 10:06:06;;;;;;;;;2.00;2.00;;;;;;;;4999906;28;45392;-78
2024/03/16 10:08:31;;;;;;;;;2.00;2.00;;;;;;;;4998858;28;45436;-78
2024/03/16 10:11:10;;;;;;;;;2.00;2.00;;;;;;;;4981850;28;47072;-79
2024/03/16 10:13:39;;;;;;;;;2.00;2.00;;;;;;;;4999964;28;45352;-76
2024/03/16 10:16:07;;;;;;;;;1.67;1.67;;;;;;;;4999999;28;45381;-77
2024/03/16 10:18:35;;;;;;;;;1.00;1.00;;;;;;;;4988436;28;46968;-78
2024/03/16 10:21:01;;;;;;;;;1.67;1.67;;;;;;;;4999585;28;45571;-79
2024/03/16 10:23:29;;;;;;;;;3.00;2.00;;;;;;;;4992474;28;45450;-78
2024/03/16 10:25:56;;;;;;;;;1.00;1.00;;;;;;;;5000001;28;45264;-79
2024/03/16 10:28:21;;;;;;;;;0.00;0.00;;;;;;;;4999840;28;45258;-77
2024/03/16 10:30:46;;;;;;;;;1.00;1.00;;;;;;;;4999350;28;45427;-76
2024/03/16 10:33:11;;;;;;;;;1.00;0.33;;;;;;;;4981705;28;45654;-77
2024/03/16 10:35:39;;;;;;;;;3.00;2.33;;;;;;;;4999205;28;45224;-76
2024/03/16 10:38:09;;;;;;;;;1.33;1.33;;;;;;;;4999262;28;45416;-77
2024/03/16 10:40:35;;;;;;;;;2.00;1.00;;;;;;;;4999010;28;45313;-77
2024/03/16 10:43:01;;;;;;;;;1.00;1.00;;;;;;;;4998987;28;45448;-77
2024/03/16 10:45:30;;;;;;;;;1.00;1.00;;;;;;;;4981719;28;45267;-77
2024/03/16 10:47:55;;;;;;;;;1.00;1.00;;;;;;;;4985734;28;45332;-77
2024/03/16 10:50:24;;;;;;;;;2.00;2.00;;;;;;;;4998579;28;45456;-76
2024/03/16 10:52:50;;;;;;;;;2.00;1.00;;;;;;;;4999436;28;45298;-75
2024/03/16 10:55:21;;;;;;;;;2.00;1.33;;;;;;;;4981773;28;45339;-78
2024/03/16 10:57:47;;;;;;;;;1.00;1.00;;;;;;;;5010133;28;45441;-77
2024/03/16 11:00:35;;;;;;;;;2.00;2.00;;;;;;;;5020580;28;45330;-77
2024/03/16 11:03:22;;;;;;;;;3.67;2.67;;;;;;;;4999673;28;45155;-78
2024/03/16 11:05:54;;;;;;;;;1.00;1.00;;;;;;;;4981073;28;45488;-77
2024/03/16 11:08:25;;;;;;;;;0.00;0.00;;;;;;;;5000449;28;45281;-78
2024/03/16 11:10:54;;;;;;;;;2.00;2.00;;;;;;;;5002747;28;45445;-78
2024/03/16 11:13:20;;;;;;;;;0.75;0.75;;;;;;;;5000978;28;45306;-78
2024/03/16 11:15:49;;;;;;;;;2.25;1.50;;;;;;;;5000691;28;45292;-79
2024/03/16 11:18:18;;;;;;;;;1.67;1.67;;;;;;;;5000084;28;45273;-77
2024/03/16 11:20:44;;;;;;;;;1.75;1.00;;;;;;;;5004774;28;46654;-77
2024/03/16 11:23:22;;;;;;;;;2.00;2.00;;;;;;;;4970937;28;45338;-78
2024/03/16 11:25:50;;;;;;;;;3.33;2.67;;;;;;;;4996949;28;45258;-79
2024/03/16 11:28:17;;;;;;;;;5.00;2.00;;;;;;;;5008678;28;45617;-77
2024/03/16 11:30:42;;;;;;;;;2.00;2.00;;;;;;;;4983061;28;47344;-78
2024/03/16 11:33:14;;;;;;;;;0.50;0.50;;;;;;;;4985051;28;45361;-77
2024/03/16 11:35:40;;;;;;;;;1.00;1.00;;;;;;;;4990617;28;45278;-76
2024/03/16 11:38:06;;;;;;;;;2.00;0.00;;;;;;;;5006609;28;45337;-78
2024/03/16 11:40:31;;;;;;;;;0.00;0.00;;;;;;;;4999983;28;45422;-76
2024/03/16 11:42:57;;;;;;;;;0.00;0.00;;;;;;;;4981714;28;45388;-78
2024/03/16 11:45:22;;;;;;;;;1.50;0.75;;;;;;;;4999568;28;45540;-78
2024/03/16 11:47:47;;;;;;;;;1.00;1.00;;;;;;;;4999391;28;45326;-76
2024/03/16 11:50:13;;;;;;;;;2.25;1.50;;;;;;;;4999377;28;45441;-79
2024/03/16 11:52:39;;;;;;;;;1.00;1.00;;;;;;;;5001150;28;45322;-79
2024/03/16 11:55:06;;;;;;;;;1.33;1.33;;;;;;;;4980579;28;45591;-80
2024/03/16 11:57:31;;;;;;;;;2.00;1.25;;;;;;;;5001291;28;46615;-80
2024/03/16 11:59:57;;;;;;;;;0.25;0.25;;;;;;;;5003053;28;45237;-78
2024/03/16 12:02:22;;;;;;;;;1.00;1.00;;;;;;;;5000186;28;45912;-77
2024/03/16 12:04:48;;;;;;;;;0.00;0.00;;;;;;;;4998539;28;45283;-79
2024/03/16 12:07:13;;;;;;;;;1.00;1.00;;;;;;;;4981520;28;46337;-79
2024/03/16 12:09:41;;;;;;;;;1.33;1.33;;;;;;;;5000372;28;45512;-80
2024/03/16 12:12:07;;;;;;;;;0.25;0.25;;;;;;;;5003653;28;45330;-78
2024/03/16 12:14:34;;;;;;;;;1.00;1.00;;;;;;;;5003955;28;45349;-78
2024/03/16 12:16:59;;;;;;;;;1.50;1.00;;;;;;;;5001804;28;45277;-77
2024/03/16 12:19:24;;;;;;;;;2.00;2.00;;;;;;;;4984096;28;47050;-77
2024/03/16 12:21:49;;;;;;;;;2.00;2.00;;;;;;;;5002092;28;45297;-77
2024/03/16 12:24:16;;;;;;;;;0.50;0.50;;;;;;;;4984475;28;45263;-78
2024/03/16 12:26:45;;;;;;;;;1.75;1.75;;;;;;;;4984077;28;46011;-76
2024/03/16 12:29:18;;;;;;;;;3.75;2.75;;;;;;;;5000547;28;45491;-77
2024/03/16 12:31:47;;;;;;;;;5.25;2.00;;;;;;;;5001523;28;45432;-77
2024/03/16 12:34:13;;;;;;;;;1.25;1.25;;;;;;;;5001925;28;45389;-75
2024/03/16 12:36:39;;;;;;;;;1.50;1.50;;;;;;;;5001274;28;45266;-76
2024/03/16 12:39:08;;;;;;;;;7.67;6.00;;;;;;;;4998159;28;45947;-76
2024/03/16 12:41:37;;;;;;;;;2.00;1.00;;;;;;;;5001356;28;45321;-75
2024/03/16 12:44:03;;;;;;;;;1.75;1.00;;;;;;;;4987068;28;45333;-75
2024/03/16 12:46:28;;;;;;;;;2.75;2.00;;;;;;;;4996435;28;46325;-76
2024/03/16 12:48:53;;;;;;;;;1.00;1.00;;;;;;;;5000857;28;45341;-75
2024/03/16 12:51:19;;;;;;;;;1.75;1.75;;;;;;;;5001384;28;45387;-76
2024/03/16 12:53:45;;;;;;;;;2.00;2.00;;;;;;;;5001389;28;45287;-76
2024/03/16 12:56:11;;;;;;;;;1.50;1.50;;;;;;;;4983758;28;47411;-75
2024/03/16 12:58:36;;;;;;;;;1.00;1.00;;;;;;;;5019140;28;45212;-76
2024/03/16 13:01:01;;;;;;;;;1.50;1.50;;;;;;;;5012587;28;45287;-75
2024/03/16 13:03:26;;;;;;;;;2.00;2.00;;;;;;;;5021189;28;45258;-76
2024/03/16 13:05:52;;;;;;;;;2.50;1.75;;;;;;;;5020611;28;45254;-76
2024/03/16 13:08:17;;;;;;;;;1.75;1.75;;;;;;;;5003278;28;47289;-76
2024/03/16 13:10:42;;;;;;;;;1.00;1.00;;;;;;;;5020498;28;45375;-77
2024/03/16 13:13:07;;;;;;;;;2.00;1.00;;;;;;;;5001685;28;45315;-76
2024/03/16 13:15:32;;;;;;;;;3.00;2.00;;;;;;;;5001154;28;45428;-77
2024/03/16 13:17:58;;;;;;;;;2.00;2.00;;;;;;;;4999911;28;45313;-76
2024/03/16 13:20:24;;;;;;;;;3.50;1.00;;;;;;;;5000839;28;45438;-77
2024/03/16 13:22:49;;;;;;;;;2.00;2.00;;;;;;;;5001001;28;45423;-77
2024/03/16 13:25:14;;;;;;;;;1.00;1.00;;;;;;;;5000858;28;45389;-76
2024/03/16 13:27:39;;;;;;;;;0.00;0.00;;;;;;;;5000936;28;45333;-76
2024/03/16 13:30:05;;;;;;;;;4.00;2.75;;;;;;;;5000591;28;45373;-76
2024/03/16 13:32:31;;;;;;;;;2.00;2.00;;;;;;;;5000746;28;45349;-75
2024/03/16 13:34:57;;;;;;;;;2.25;2.25;;;;;;;;5000497;28;45278;-75
2024/03/16 13:37:22;;;;;;;;;3.25;2.00;;;;;;;;5000939;28;45344;-74
2024/03/16 13:39:47;;;;;;;;;0.75;0.75;;;;;;;;5000892;28;45410;-76
2024/03/16 13:42:13;;;;;;;;;3.00;1.00;;;;;;;;5000964;28;45384;-76
2024/03/16 13:44:38;;;;;;;;;2.00;2.00;;;;;;;;5000365;28;45334;-75
2024/03/16 13:47:04;;;;;;;;;1.00;1.00;;;;;;;;4981971;28;47951;-75
2024/03/16 13:49:31;;;;;;;;;1.00;1.00;;;;;;;;5000591;28;45386;-76
2024/03/16 13:51:57;;;;;;;;;1.25;1.25;;;;;;;;5000715;28;45297;-76
2024/03/16 13:54:22;;;;;;;;;2.00;1.00;;;;;;;;4982718;28;47187;-77
2024/03/16 13:56:47;;;;;;;;;2.50;2.50;;;;;;;;5003215;28;45506;-75
2024/03/16 13:59:13;;;;;;;;;1.25;1.25;;;;;;;;5001828;28;45378;-77
2024/03/16 14:01:38;;;;;;;;;1.50;1.50;;;;;;;;4981822;28;45391;-74
2024/03/16 14:04:04;;;;;;;;;1.50;1.50;;;;;;;;4981626;28;47301;-76
2024/03/16 14:06:30;;;;;;;;;1.00;1.00;;;;;;;;5000311;28;46115;-77
2024/03/16 14:08:55;;;;;;;;;1.00;1.00;;;;;;;;4999997;28;45307;-76
2024/03/16 14:11:20;;;;;;;;;1.50;1.50;;;;;;;;5000163;28;45375;-75
2024/03/16 14:13:45;;;;;;;;;1.50;1.50;;;;;;;;4982620;28;47144;-75
2024/03/16 14:16:11;;;;;;;;;1.00;1.00;;;;;;;;5000143;28;46383;-75
2024/03/16 14:18:36;;;;;;;;;1.75;1.25;;;;;;;;4982496;28;45351;-76
2024/03/16 14:21:03;;;;;;;;;2.00;2.00;;;;;;;;4999740;28;45329;-79
2024/03/16 14:23:28;;;;;;;;;2.25;2.00;;;;;;;;5000554;28;45436;-76
2024/03/16 14:25:53;;;;;;;;;1.00;1.00;;;;;;;;5000106;28;45359;-75
2024/03/16 14:28:19;;;;;;;;;1.00;1.00;;;;;;;;4980626;28;45200;-75
2024/03/16 14:30:44;;;;;;;;;2.00;2.00;;;;;;;;4999437;28;45265;-76
2024/03/16 14:33:10;;;;;;;;;2.00;2.00;;;;;;;;4999306;28;45275;-76
2024/03/16 14:35:35;;;;;;;;;2.75;1.50;;;;;;;;5001026;28;45329;-76